Time;durP1;ratioP1;P1;durP2;ratioP2;P2;SDS_P1;SDS_P2;PMS_P1;PMS_P2;Temp;Humidity;BMP_temperature;BMP_pressure;BME280_temperature;BME280_humidity;BME280_pressure;Samples;Min_cycle;Max_cycle;Signal;HPM_P1;HPM_P2
2021/12/13 00:01:25;;;;;;;149.20;46.90;;;;;;;-0.58;87.37;101392.85;88002;1284;82807;-66
2021/12/13 00:03:46;;;;;;;145.60;47.80;;;;;;;-0.61;87.29;101394.95;88018;1282;100084;-68
2021/12/13 00:06:00;;;;;;;148.70;48.20;;;;;;;-0.68;87.41;101396.43;88012;1286;88652;-64
2021/12/13 00:08:18;;;;;;;150.70;49.60;;;;;;;-0.69;87.24;101399.70;87980;1286;95380;-63
2021/12/13 00:10:36;;;;;;;141.70;45.10;;;;;;;-0.74;87.23;101403.55;87990;1286;79564;-65
2021/12/13 00:12:50;;;;;;;141.50;45.10;;;;;;;-0.76;87.42;101402.25;88044;1285;82447;-63
2021/12/13 00:15:01;;;;;;;144.50;44.70;;;;;;;-0.75;87.32;101402.89;88014;1285;98939;-63
2021/12/13 00:17:17;;;;;;;134.40;40.80;;;;;;;-0.73;87.23;101402.44;87983;1280;89056;-67
2021/12/13 00:19:36;;;;;;;128.60;44.60;;;;;;;-0.70;87.39;101401.91;88004;1282;95327;-68
2021/12/13 00:21:52;;;;;;;138.10;45.70;;;;;;;-0.71;87.28;101405.32;87962;1281;79014;-66
2021/12/13 00:24:11;;;;;;;135.00;44.10;;;;;;;-0.71;87.58;101405.48;88010;1282;81425;-67
2021/12/13 00:26:32;;;;;;;131.90;46.30;;;;;;;-0.69;87.71;101402.83;87985;1282;98862;-67
2021/12/13 00:28:44;;;;;;;129.50;45.10;;;;;;;-0.68;87.68;101401.75;87989;1285;88993;-66
2021/12/13 00:31:25;;;;;;;146.70;47.60;;;;;;;-0.69;87.61;101399.16;87921;1283;94164;-63
2021/12/13 00:33:46;;;;;;;131.90;44.00;;;;;;;-0.72;87.22;101400.92;87973;1282;81941;-67
2021/12/13 00:36:06;;;;;;;137.40;45.70;;;;;;;-0.75;87.33;101401.64;87995;1285;82078;-66
2021/12/13 00:38:23;;;;;;;141.10;43.30;;;;;;;-0.75;87.48;101406.08;87976;1286;99042;-67
2021/12/13 00:40:39;;;;;;;127.20;43.40;;;;;;;-0.75;87.32;101402.72;88006;1282;88145;-67
2021/12/13 00:42:57;;;;;;;131.00;42.40;;;;;;;-0.77;87.39;101403.73;87674;1283;93143;-63
2021/12/13 00:45:15;;;;;;;135.30;45.40;;;;;;;-0.76;87.37;101404.58;87997;1283;77135;-65
2021/12/13 00:47:26;;;;;;;130.30;42.70;;;;;;;-0.71;87.45;101403.88;87977;1280;80935;-67
2021/12/13 00:49:39;;;;;;;136.70;45.20;;;;;;;-0.67;87.68;101406.50;87988;1285;99900;-67
2021/12/13 00:51:56;;;;;;;135.20;44.70;;;;;;;-0.65;87.41;101401.73;88050;1282;88050;-71
2021/12/13 00:54:17;;;;;;;128.90;43.40;;;;;;;-0.67;87.58;101400.27;87999;1285;94308;-74
2021/12/13 00:57:09;;;;;;;129.50;42.80;;;;;;;-0.72;87.31;101401.64;88010;1280;77644;-63
2021/12/13 00:59:30;;;;;;;140.10;43.50;;;;;;;-0.78;87.35;101403.06;87992;1284;81514;-63
2021/12/13 01:01:42;;;;;;;136.00;44.40;;;;;;;-0.78;87.31;101400.60;87980;1281;100556;-64
2021/12/13 01:03:58;;;;;;;139.80;45.00;;;;;;;-0.80;87.30;101408.67;88018;1282;88008;-64
2021/12/13 01:07:48;;;;;;;119.00;40.10;;;;;;;-0.79;87.36;101413.39;87984;1285;95669;-63
2021/12/13 01:10:48;;;;;;;121.00;40.50;;;;;;;-0.78;87.83;101418.63;87864;1283;79237;-63
2021/12/13 01:13:00;;;;;;;125.30;43.90;;;;;;;-0.75;87.55;101410.31;87232;1289;82285;-68
2021/12/13 01:15:16;;;;;;;132.30;41.90;;;;;;;-0.73;87.64;101404.52;87228;1293;99541;-67
2021/12/13 01:17:54;;;;;;;135.30;44.70;;;;;;;-0.65;87.42;101406.50;87419;1281;87615;-68
2021/12/13 01:20:16;;;;;;;129.10;43.70;;;;;;;-0.64;87.62;101405.95;87988;1282;94382;-67
2021/12/13 01:22:46;;;;;;;125.40;42.90;;;;;;;-0.68;87.43;101402.64;87976;1280;76331;-67
2021/12/13 01:25:20;;;;;;;137.90;42.50;;;;;;;-0.74;87.43;101406.89;87991;1286;81706;-67
2021/12/13 01:27:36;;;;;;;123.30;42.70;;;;;;;-0.77;87.19;101414.02;88040;1283;96851;-65
2021/12/13 01:29:53;;;;;;;137.00;42.80;;;;;;;-0.80;87.39;101417.90;87987;1282;88137;-67
2021/12/13 01:32:11;;;;;;;133.30;43.40;;;;;;;-0.83;87.48;101417.71;87979;1282;94123;-62
2021/12/13 01:34:23;;;;;;;124.30;41.10;;;;;;;-0.85;87.31;101427.35;88002;1286;79249;-62
2021/12/13 01:36:44;;;;;;;127.00;42.30;;;;;;;-0.85;87.63;101432.49;88019;1282;83021;-66
2021/12/13 01:38:58;;;;;;;130.30;43.30;;;;;;;-0.78;87.84;101428.55;87934;1282;100064;-67
2021/12/13 01:41:12;;;;;;;;;;;;;;;-0.73;87.57;101424.36;88060;1282;89174;-66
2021/12/13 01:43:28;;;;;;;120.30;42.70;;;;;;;-0.70;87.56;101424.02;87988;1282;94040;-67
2021/12/13 01:45:44;;;;;;;123.20;41.00;;;;;;;-0.72;87.71;101427.98;87988;1283;77221;-67
2021/12/13 01:47:54;;;;;;;124.10;41.00;;;;;;;-0.67;87.70;101425.21;87977;1282;82945;-63
2021/12/13 01:50:16;;;;;;;129.80;44.40;;;;;;;-0.69;87.57;101421.81;87977;1282;100096;-63
2021/12/13 01:52:32;;;;;;;121.90;42.30;;;;;;;-0.71;87.64;101418.20;88026;1282;88286;-67
2021/12/13 01:54:45;;;;;;;117.40;40.50;;;;;;;-0.81;87.82;101413.35;87997;1282;94719;-67
2021/12/13 01:57:10;;;;;;;120.60;40.40;;;;;;;-0.85;87.55;101409.14;87990;1283;78554;-68
2021/12/13 01:59:51;;;;;;;129.70;41.00;;;;;;;-0.85;87.71;101402.48;87987;1285;84159;-66
2021/12/13 02:02:18;;;;;;;133.80;45.40;;;;;;;-0.82;87.78;101403.15;88023;1282;98332;-63
2021/12/13 02:04:27;;;;;;;132.40;41.40;;;;;;;-0.80;87.67;101392.81;87991;1282;89081;-63
2021/12/13 02:06:43;;;;;;;124.30;41.30;;;;;;;-0.77;87.71;101389.58;87962;1282;94470;-67
2021/12/13 02:09:02;;;;;;;122.90;41.40;;;;;;;-0.76;87.95;101390.62;87929;1282;78913;-68
2021/12/13 02:11:12;;;;;;;121.30;41.40;;;;;;;-0.73;88.08;101390.19;88012;1282;80210;-68
2021/12/13 02:13:26;;;;;;;124.60;43.40;;;;;;;-0.66;87.79;101391.00;87993;1281;98608;-67
2021/12/13 02:18:09;;;;;;;126.10;42.90;;;;;;;-0.69;87.82;101402.88;87982;1280;93403;-63
2021/12/13 02:20:27;;;;;;;125.40;43.20;;;;;;;-0.70;87.75;101401.84;87801;1286;78658;-63
2021/12/13 02:22:41;;;;;;;126.70;38.70;;;;;;;-0.70;87.68;101402.25;87984;1281;80209;-64
2021/12/13 02:24:52;;;;;;;127.40;42.90;;;;;;;-0.68;87.53;101398.91;88024;1270;98601;-66
2021/12/13 02:27:07;;;;;;;141.10;44.20;;;;;;;-0.67;87.75;101399.93;87956;1285;89434;-64
2021/12/13 02:29:36;;;;;;;129.30;41.10;;;;;;;-0.65;87.84;101395.91;87972;1282;95568;-64
2021/12/13 02:31:46;;;;;;;134.90;41.70;;;;;;;-0.65;87.77;101391.85;87939;1278;78586;-68
2021/12/13 02:33:59;;;;;;;129.90;43.50;;;;;;;-0.62;87.86;101395.18;88002;1282;82120;-68
2021/12/13 02:36:12;;;;;;;126.80;44.00;;;;;;;-0.61;87.92;101394.23;88017;1283;100270;-65
2021/12/13 02:38:23;;;;;;;137.30;43.30;;;;;;;-0.58;87.91;101395.69;87991;1282;89080;-67
2021/12/13 02:40:36;;;;;;;145.70;45.10;;;;;;;-0.54;88.00;101397.19;87997;1283;92772;-66
2021/12/13 02:42:46;;;;;;;135.50;45.40;;;;;;;-0.56;87.67;101396.95;88035;1286;78583;-68
2021/12/13 02:45:14;;;;;;;139.80;45.90;;;;;;;-0.60;87.76;101399.31;88959;1262;80113;-64
2021/12/13 02:47:32;;;;;;;135.40;43.80;;;;;;;-0.62;87.68;101403.52;88059;1280;97706;-63
2021/12/13 02:49:45;;;;;;;142.70;42.80;;;;;;;-0.64;87.20;101399.71;88031;1280;87163;-67
2021/12/13 02:52:02;;;;;;;145.20;43.80;;;;;;;-0.66;87.47;101404.11;88034;1280;94770;-67
2021/12/13 02:54:19;;;;;;;142.50;44.00;;;;;;;-0.67;87.49;101403.62;88048;1280;79280;-67
2021/12/13 02:56:36;;;;;;;139.70;44.20;;;;;;;-0.64;87.62;101403.80;87992;1280;81503;-67
2021/12/13 02:58:47;;;;;;;140.30;43.00;;;;;;;-0.58;87.68;101399.40;87976;1281;97291;-66
2021/12/13 03:01:03;;;;;;;137.70;44.60;;;;;;;-0.58;87.89;101400.27;88000;1283;88518;-67
2021/12/13 03:03:21;;;;;;;139.00;44.00;;;;;;;-0.54;87.76;101397.23;88020;1284;95262;-67
2021/12/13 03:05:36;;;;;;;134.90;45.30;;;;;;;-0.54;87.98;101393.48;88012;1282;77322;-64
2021/12/13 03:07:53;;;;;;;132.70;43.20;;;;;;;-0.54;87.73;101396.84;87984;1282;82658;-65
2021/12/13 03:10:13;;;;;;;121.00;41.20;;;;;;;-0.53;87.38;101400.52;87999;1282;97999;-68
2021/12/13 03:12:25;;;;;;;126.10;41.60;;;;;;;-0.62;87.62;101405.12;88022;1280;88807;-66
2021/12/13 03:14:40;;;;;;;129.40;40.30;;;;;;;-0.73;87.46;101404.21;88010;1285;94566;-64
2021/12/13 03:16:55;;;;;;;113.50;36.40;;;;;;;-0.75;87.56;101408.58;87999;1282;78496;-65
2021/12/13 03:19:09;;;;;;;102.40;32.00;;;;;;;-0.78;87.72;101410.50;87993;1280;82792;-64
2021/12/13 03:21:59;;;;;;;96.80;31.40;;;;;;;-0.76;87.45;101409.31;88008;1282;98214;-63
2021/12/13 03:24:37;;;;;;;90.20;32.20;;;;;;;-0.77;87.50;101410.96;87913;1282;87594;-64
2021/12/13 03:27:24;;;;;;;99.10;33.90;;;;;;;-0.72;87.57;101409.10;87978;1282;95260;-64
2021/12/13 03:29:55;;;;;;;100.10;35.40;;;;;;;-0.68;87.82;101408.30;88023;1282;78690;-66
2021/12/13 03:32:09;;;;;;;99.10;34.30;;;;;;;-0.64;87.73;101403.08;87998;1283;82482;-66
2021/12/13 03:34:28;;;;;;;92.20;32.40;;;;;;;-0.66;87.70;101402.34;88011;1280;97904;-67
2021/12/13 03:36:57;;;;;;;95.10;32.70;;;;;;;-0.68;87.72;101399.65;88034;1282;86980;-67
2021/12/13 03:39:09;;;;;;;96.60;34.10;;;;;;;-0.69;87.69;101399.35;88033;1280;95639;-67
2021/12/13 03:41:22;;;;;;;83.60;30.50;;;;;;;-0.70;87.77;101402.77;88006;1279;77191;-67
2021/12/13 03:43:42;;;;;;;91.60;32.50;;;;;;;-0.73;87.77;101404.52;88022;1282;80361;-66
2021/12/13 03:45:56;;;;;;;95.10;33.00;;;;;;;-0.75;87.73;101398.83;88005;1282;97134;-64
2021/12/13 03:48:08;;;;;;;93.70;31.70;;;;;;;-0.81;87.56;101395.52;87991;1280;88957;-65
2021/12/13 03:50:22;;;;;;;87.60;30.30;;;;;;;-0.83;87.62;101395.11;87979;1282;94967;-67
2021/12/13 03:52:33;;;;;;;86.30;31.30;;;;;;;-0.88;87.87;101403.19;88013;1282;79467;-67
2021/12/13 03:54:46;;;;;;;87.80;33.50;;;;;;;-0.82;87.85;101405.98;88013;1282;81812;-66
2021/12/13 03:57:00;;;;;;;88.40;31.50;;;;;;;-0.76;87.74;101403.13;87992;1282;99320;-68
2021/12/13 03:59:15;;;;;;;86.30;31.40;;;;;;;-0.73;87.82;101403.30;88023;1282;86522;-65
2021/12/13 04:01:29;;;;;;;89.00;31.10;;;;;;;-0.68;87.51;101404.42;87989;1282;94414;-66
2021/12/13 04:03:41;;;;;;;89.40;33.10;;;;;;;-0.71;87.72;101404.02;87993;1282;76676;-66
2021/12/13 04:05:54;;;;;;;88.70;32.20;;;;;;;-0.75;87.73;101410.89;88021;1280;81460;-66
2021/12/13 04:08:09;;;;;;;79.30;30.50;;;;;;;-0.76;87.57;101417.62;87995;1282;99876;-66
2021/12/13 04:10:26;;;;;;;85.80;31.00;;;;;;;-0.75;87.57;101419.85;87998;1282;88537;-64
2021/12/13 04:12:45;;;;;;;86.60;31.10;;;;;;;-0.75;87.47;101418.10;87972;1282;93730;-64
2021/12/13 04:15:02;;;;;;;90.00;31.40;;;;;;;-0.78;87.45;101417.73;88048;1286;80005;-67
2021/12/13 04:17:35;;;;;;;90.50;31.10;;;;;;;-0.79;87.36;101418.14;88005;1273;79850;-68
2021/12/13 04:19:55;;;;;;;79.40;28.30;;;;;;;-0.79;87.43;101413.90;87981;1281;97305;-67
2021/12/13 04:22:12;;;;;;;85.20;30.70;;;;;;;-0.76;87.44;101412.31;88005;1281;88404;-68
2021/12/13 04:24:30;;;;;;;82.50;30.00;;;;;;;-0.78;87.33;101409.46;87957;1281;95531;-64
2021/12/13 04:26:50;;;;;;;82.70;31.10;;;;;;;-0.77;87.46;101410.44;88003;1280;80094;-64
2021/12/13 04:29:04;;;;;;;80.70;31.70;;;;;;;-0.77;87.52;101410.81;88000;1280;82016;-65
2021/12/13 04:31:18;;;;;;;77.50;29.30;;;;;;;-0.80;87.39;101410.79;87990;1282;100148;-64
2021/12/13 04:33:31;;;;;;;82.70;29.60;;;;;;;-0.82;87.21;101406.52;88019;1282;86741;-64
2021/12/13 04:35:48;;;;;;;75.40;28.10;;;;;;;-0.88;87.17;101403.73;88005;1279;95260;-65
2021/12/13 04:38:04;;;;;;;82.60;29.40;;;;;;;-0.99;87.12;101405.05;87994;1282;80134;-65
2021/12/13 04:40:18;;;;;;;82.30;28.60;;;;;;;-1.03;87.46;101408.84;88003;1282;82403;-65
2021/12/13 04:42:30;;;;;;;81.60;29.20;;;;;;;-1.06;87.29;101403.71;88037;1284;98882;-65
2021/12/13 04:44:45;;;;;;;77.20;28.60;;;;;;;-1.10;87.22;101405.39;88024;1282;86943;-65
2021/12/13 04:47:03;;;;;;;76.80;29.30;;;;;;;-1.06;87.38;101408.54;88014;1283;95153;-65
2021/12/13 04:49:19;;;;;;;80.20;28.90;;;;;;;-1.05;87.30;101412.34;87998;1274;77284;-66
2021/12/13 04:51:38;;;;;;;81.00;27.30;;;;;;;-1.04;87.17;101415.45;87999;1282;82570;-64
2021/12/13 04:53:50;;;;;;;82.00;30.50;;;;;;;-1.03;87.17;101417.85;88004;1283;99746;-64
2021/12/13 04:56:02;;;;;;;80.50;29.10;;;;;;;-0.98;87.45;101423.19;88005;1282;88406;-67
2021/12/13 04:58:14;;;;;;;80.40;30.40;;;;;;;-0.98;87.18;101423.23;88020;1274;93738;-67
2021/12/13 05:00:27;;;;;;;83.10;31.30;;;;;;;-0.99;87.21;101422.24;88004;1282;79957;-67
2021/12/13 05:02:37;;;;;;;81.50;32.30;;;;;;;-1.04;87.08;101422.52;88046;1282;79438;-67
2021/12/13 05:04:46;;;;;;;74.30;27.40;;;;;;;-1.16;87.45;101427.66;88031;1282;97800;-66
2021/12/13 05:07:01;;;;;;;79.70;26.80;;;;;;;-1.26;87.42;101436.71;88009;1281;88066;-66
2021/12/13 05:09:16;;;;;;;73.20;28.70;;;;;;;-1.25;87.30;101435.63;88024;1280;93535;-68
2021/12/13 05:11:28;;;;;;;71.50;26.40;;;;;;;-1.20;87.20;101437.95;87992;1280;82134;-68
2021/12/13 05:13:49;;;;;;;75.60;28.20;;;;;;;-1.15;87.33;101438.76;88022;1278;83485;-65
2021/12/13 05:16:09;;;;;;;75.30;28.20;;;;;;;-1.18;86.86;101436.95;88022;1282;99278;-64
2021/12/13 05:18:25;;;;;;;76.70;30.70;;;;;;;-1.10;87.16;101435.45;85855;1282;2936820;-63
2021/12/13 05:20:40;;;;;;;73.40;27.60;;;;;;;-1.07;87.11;101429.45;88026;1280;94704;-65
2021/12/13 05:22:55;;;;;;;67.70;25.90;;;;;;;-1.08;87.16;101427.19;88017;1282;77150;-65
2021/12/13 05:25:07;;;;;;;72.70;27.30;;;;;;;-1.12;87.07;101425.14;88042;1282;81621;-66
2021/12/13 05:27:25;;;;;;;70.60;26.30;;;;;;;-1.14;87.09;101428.61;88028;1280;98072;-69
2021/12/13 05:29:43;;;;;;;74.70;25.70;;;;;;;-1.15;87.37;101432.00;87998;1280;88844;-66
2021/12/13 05:31:58;;;;;;;84.40;29.30;;;;;;;-1.15;87.17;101434.32;87982;1282;95131;-65
2021/12/13 05:34:13;;;;;;;77.60;26.80;;;;;;;-1.15;87.53;101440.86;87779;1283;80593;-66
2021/12/13 05:36:29;;;;;;;72.90;26.90;;;;;;;-1.15;87.39;101445.11;88008;1280;83014;-67
2021/12/13 05:38:48;;;;;;;70.90;25.30;;;;;;;-1.18;87.47;101445.27;87911;1277;99296;-68
2021/12/13 05:41:03;;;;;;;74.80;29.80;;;;;;;-1.16;87.37;101448.37;88013;1282;89595;-66
2021/12/13 05:43:27;;;;;;;73.30;27.30;;;;;;;-1.18;87.46;101453.07;87984;1278;94109;-66
2021/12/13 05:45:41;;;;;;;76.50;29.30;;;;;;;-1.14;87.46;101457.78;88016;1282;79243;-66
2021/12/13 05:48:04;;;;;;;81.40;28.30;;;;;;;-1.10;87.47;101455.60;88013;1282;82335;-65
2021/12/13 05:50:29;;;;;;;79.30;28.60;;;;;;;-1.09;87.60;101456.22;88036;1282;98234;-63
2021/12/13 05:52:42;;;;;;;77.00;26.70;;;;;;;-1.08;87.25;101461.48;87985;1282;88109;-63
2021/12/13 05:54:57;;;;;;;86.60;29.40;;;;;;;-1.12;87.38;101463.64;87986;1282;95662;-64
2021/12/13 05:57:14;;;;;;;82.80;29.30;;;;;;;-1.14;87.53;101465.89;87995;1280;81109;-64
2021/12/13 05:59:31;;;;;;;87.00;31.60;;;;;;;-1.13;87.52;101468.30;88026;1282;81139;-64
2021/12/13 06:02:00;;;;;;;85.00;26.60;;;;;;;-1.11;87.39;101465.23;88003;1277;100223;-63
2021/12/13 06:04:23;;;;;;;78.40;26.60;;;;;;;-1.14;87.34;101466.45;87995;1285;88427;-66
2021/12/13 06:06:36;;;;;;;72.50;26.70;;;;;;;-1.10;87.40;101467.95;88023;1282;94853;-65
2021/12/13 06:08:50;;;;;;;74.50;24.80;;;;;;;-1.05;87.49;101471.39;88043;1284;77959;-65
2021/12/13 06:11:04;;;;;;;78.60;26.90;;;;;;;-1.01;87.60;101472.71;88047;1288;81348;-66
2021/12/13 06:13:38;;;;;;;68.90;25.20;;;;;;;-1.01;87.27;101474.66;88040;1276;98283;-64
2021/12/13 06:15:48;;;;;;;73.20;26.40;;;;;;;-1.03;87.51;101475.67;88027;1284;87996;-64
2021/12/13 06:18:11;;;;;;;76.60;27.10;;;;;;;-1.01;87.52;101478.90;88009;1278;95889;-65
2021/12/13 06:20:28;;;;;;;71.50;26.10;;;;;;;-1.04;87.58;101479.61;88084;1282;76381;-64
2021/12/13 06:22:40;;;;;;;70.30;26.30;;;;;;;-1.06;87.40;101486.61;88024;1282;82746;-64
2021/12/13 06:24:59;;;;;;;69.30;24.90;;;;;;;-1.11;87.32;101488.32;87977;1282;97195;-70
2021/12/13 06:27:23;;;;;;;75.60;26.10;;;;;;;-1.13;87.37;101487.23;88027;1281;88800;-65
2021/12/13 06:29:52;;;;;;;66.60;23.70;;;;;;;-1.15;87.57;101485.59;87984;1282;94907;-66
2021/12/13 06:32:24;;;;;;;77.70;26.40;;;;;;;-1.15;87.41;101491.43;88049;1282;82039;-63
2021/12/13 06:34:32;;;;;;;68.60;26.10;;;;;;;-1.15;87.55;101492.45;88060;1278;79997;-67
2021/12/13 06:36:45;;;;;;;80.00;25.70;;;;;;;-1.11;87.54;101495.77;88014;1277;99682;-65
2021/12/13 06:38:57;;;;;;;52.10;19.40;;;;;;;-1.00;87.44;101493.34;87999;1282;86156;-63
2021/12/13 06:41:14;;;;;;;77.80;26.80;;;;;;;-0.94;87.51;101499.71;88049;1282;95014;-63
2021/12/13 06:43:37;;;;;;;69.00;27.90;;;;;;;-0.95;87.48;101503.51;88008;1285;77736;-63
2021/12/13 06:45:47;;;;;;;74.60;27.60;;;;;;;-0.97;87.39;101500.09;88025;1280;80290;-63
2021/12/13 06:47:59;;;;;;;73.50;26.80;;;;;;;-0.99;87.45;101505.32;88020;1278;98223;-63
2021/12/13 06:50:09;;;;;;;77.00;25.50;;;;;;;-1.04;87.41;101506.14;88018;1282;88485;-65
2021/12/13 06:52:32;;;;;;;75.00;25.50;;;;;;;-1.06;87.46;101508.52;88029;1280;94337;-65
2021/12/13 06:54:46;;;;;;;80.90;25.60;;;;;;;-1.06;87.38;101509.77;88007;1282;81591;-65
2021/12/13 06:57:04;;;;;;;67.50;23.30;;;;;;;-1.06;87.61;101515.64;88023;1279;80384;-64
2021/12/13 06:59:19;;;;;;;67.60;22.70;;;;;;;-1.05;87.32;101514.52;88007;1282;99424;-64
2021/12/13 07:01:34;;;;;;;64.30;22.30;;;;;;;-1.00;87.41;101513.30;88037;1285;87609;-63
2021/12/13 07:03:55;;;;;;;75.90;25.90;;;;;;;-0.94;87.54;101514.71;87994;1282;93813;-64
2021/12/13 07:06:08;;;;;;;74.60;26.20;;;;;;;-0.92;87.55;101519.02;88029;1283;77436;-69
2021/12/13 07:08:24;;;;;;;75.30;26.50;;;;;;;-0.95;87.76;101520.45;88073;1282;82303;-66
2021/12/13 07:10:39;;;;;;;73.70;25.90;;;;;;;-0.92;87.62;101518.33;88050;1280;99783;-62
2021/12/13 07:12:57;;;;;;;80.60;26.80;;;;;;;-0.93;87.43;101519.83;88012;1282;88633;-65
2021/12/13 07:15:21;;;;;;;79.20;29.20;;;;;;;-0.94;87.56;101525.14;87991;1282;94039;-66
2021/12/13 07:17:35;;;;;;;79.00;26.20;;;;;;;-0.91;87.28;101531.70;88036;1282;80258;-65
2021/12/13 07:19:46;;;;;;;;;;;;;;;-0.90;87.52;101528.30;88060;1282;80529;-66
2021/12/13 07:22:01;;;;;;;86.90;30.60;;;;;;;-0.92;87.53;101527.68;88033;1282;98217;-67
2021/12/13 07:24:14;;;;;;;80.60;29.00;;;;;;;-0.90;87.46;101528.46;87971;1277;86053;-66
2021/12/13 07:26:39;;;;;;;76.60;27.70;;;;;;;-0.96;87.24;101530.91;88044;1282;95210;-66
2021/12/13 07:28:54;;;;;;;78.80;29.00;;;;;;;-0.92;87.45;101535.66;88023;1279;79245;-65
2021/12/13 07:31:06;;;;;;;76.20;28.50;;;;;;;-0.80;87.50;101538.84;88051;1288;79099;-65
2021/12/13 07:33:17;;;;;;;84.10;28.90;;;;;;;-0.77;87.27;101543.06;88068;1280;97349;-65
2021/12/13 07:35:34;;;;;;;83.50;29.40;;;;;;;-0.75;87.53;101546.51;88029;1282;86947;-64
2021/12/13 07:37:54;;;;;;;85.60;30.90;;;;;;;-0.73;87.39;101542.86;88023;1274;94247;-63
2021/12/13 07:40:33;;;;;;;87.50;31.20;;;;;;;-0.74;87.32;101543.11;88016;1282;79508;-66
2021/12/13 07:42:53;;;;;;;77.50;28.80;;;;;;;-0.80;87.13;101549.98;88045;1284;81602;-64
2021/12/13 07:45:02;;;;;;;80.10;29.80;;;;;;;-0.86;87.35;101553.32;88032;1279;100053;-65
2021/12/13 07:47:18;;;;;;;88.90;30.50;;;;;;;-0.84;87.20;101553.95;88016;1283;87953;-63
2021/12/13 07:49:33;;;;;;;93.00;32.20;;;;;;;-0.82;87.52;101550.98;87986;1282;93703;-63
2021/12/13 07:51:51;;;;;;;80.60;29.40;;;;;;;-0.80;87.38;101554.25;88016;1285;79416;-63
2021/12/13 07:54:08;;;;;;;89.60;31.40;;;;;;;-0.79;87.24;101552.23;88001;1281;81511;-62
2021/12/13 07:56:38;;;;;;;89.90;30.50;;;;;;;-0.73;87.33;101555.55;88025;1274;97763;-62
2021/12/13 07:58:51;;;;;;;93.60;34.80;;;;;;;-0.64;87.53;101558.95;88038;1282;88034;-62
2021/12/13 08:01:12;;;;;;;82.40;33.30;;;;;;;-0.53;87.51;101560.05;88046;1282;95686;-64
2021/12/13 08:03:28;;;;;;;96.10;33.10;;;;;;;-0.50;87.21;101562.54;88014;1282;77714;-62
2021/12/13 08:05:42;;;;;;;97.10;34.10;;;;;;;-0.49;87.22;101561.40;88051;1280;83450;-62
2021/12/13 08:07:58;;;;;;;85.00;32.20;;;;;;;-0.46;87.51;101564.06;88041;1282;99467;-63
2021/12/13 08:10:14;;;;;;;94.10;33.30;;;;;;;-0.47;87.46;101565.19;88054;1282;89279;-64
2021/12/13 08:12:28;;;;;;;90.70;32.40;;;;;;;-0.46;87.45;101561.61;88004;1286;95480;-64
2021/12/13 08:14:48;;;;;;;93.30;34.70;;;;;;;-0.42;87.08;101567.22;88044;1285;78042;-62
2021/12/13 08:16:57;;;;;;;89.00;31.80;;;;;;;-0.40;87.05;101564.05;88014;1282;81370;-63
2021/12/13 08:19:17;;;;;;;83.90;31.70;;;;;;;-0.38;86.90;101559.73;88039;1285;97665;-63
2021/12/13 08:21:28;;;;;;;93.60;32.10;;;;;;;-0.33;86.83;101567.73;88018;1279;85959;-65
2021/12/13 08:23:45;;;;;;;89.20;31.60;;;;;;;-0.36;87.03;101563.98;88036;1282;95299;-68
2021/12/13 08:26:00;;;;;;;86.70;32.90;;;;;;;-0.30;87.14;101560.33;88026;1282;76946;-65
2021/12/13 08:28:15;;;;;;;87.00;35.00;;;;;;;-0.29;87.02;101563.06;88035;1286;82228;-64
2021/12/13 08:30:27;;;;;;;92.50;35.50;;;;;;;-0.30;87.27;101564.89;88027;1285;100280;-64
2021/12/13 08:32:37;;;;;;;89.60;34.90;;;;;;;-0.32;87.32;101565.33;88033;1282;88576;-66
2021/12/13 08:34:55;;;;;;;86.50;32.20;;;;;;;-0.42;87.05;101565.27;88043;1280;94735;-63
2021/12/13 08:37:23;;;;;;;94.70;36.50;;;;;;;-0.51;87.09;101570.73;88016;1283;79683;-63
2021/12/13 08:39:39;;;;;;;99.10;33.00;;;;;;;-0.50;87.11;101566.95;88045;1282;82499;-65
2021/12/13 08:41:55;;;;;;;96.20;36.00;;;;;;;-0.47;87.28;101568.55;88020;1282;99519;-64
2021/12/13 08:44:20;;;;;;;94.40;33.10;;;;;;;-0.42;86.89;101564.04;88039;1282;88705;-63
2021/12/13 08:46:44;;;;;;;97.60;35.70;;;;;;;-0.40;87.28;101562.33;88024;1280;94994;-63
2021/12/13 08:48:55;;;;;;;93.30;35.20;;;;;;;-0.28;87.05;101565.80;88049;1282;78723;-65
2021/12/13 08:51:06;;;;;;;105.60;40.20;;;;;;;-0.17;87.06;101571.89;88021;1277;79916;-66
2021/12/13 08:53:28;;;;;;;105.40;40.40;;;;;;;-0.08;87.02;101576.30;88039;1285;99217;-63
2021/12/13 08:55:42;;;;;;;102.70;40.10;;;;;;;0.04;86.85;101572.52;88046;1282;87637;-64
2021/12/13 08:57:53;;;;;;;;;;;;;;;0.04;87.05;101573.77;88056;1282;94338;-67
2021/12/13 09:00:17;;;;;;;93.80;35.60;;;;;;;0.07;87.08;101572.88;88018;1282;79052;-64
2021/12/13 09:02:37;;;;;;;118.30;42.90;;;;;;;0.05;86.91;101576.05;88026;1278;80738;-64
2021/12/13 09:05:02;;;;;;;120.20;42.40;;;;;;;-0.04;86.75;101569.64;88011;1278;99392;-64
2021/12/13 09:07:21;;;;;;;103.80;34.90;;;;;;;-0.01;86.81;101571.42;88029;1282;88216;-64
2021/12/13 09:09:34;;;;;;;102.80;36.40;;;;;;;-0.05;86.93;101573.98;88062;1274;94077;-64
2021/12/13 09:11:56;;;;;;;112.60;37.50;;;;;;;-0.03;87.01;101576.11;88014;1282;80365;-64
2021/12/13 09:14:20;;;;;;;109.90;34.30;;;;;;;0.06;87.10;101576.14;88041;1282;82355;-65
2021/12/13 09:16:55;;;;;;;99.70;35.40;;;;;;;0.07;87.09;101577.47;88009;1282;98561;-65
2021/12/13 09:19:18;;;;;;;104.60;35.80;;;;;;;0.08;87.10;101576.36;88019;1278;87743;-64
2021/12/13 09:21:28;;;;;;;105.00;36.80;;;;;;;0.07;87.16;101574.30;88019;1283;95460;-67
2021/12/13 09:23:46;;;;;;;101.40;36.80;;;;;;;0.08;87.11;101574.75;88032;1282;77182;-64
2021/12/13 09:26:02;;;;;;;102.90;35.30;;;;;;;0.06;87.05;101569.92;88015;1282;81801;-63
2021/12/13 09:28:20;;;;;;;113.60;38.20;;;;;;;0.00;87.00;101567.28;88073;1282;99062;-64
2021/12/13 09:30:43;;;;;;;112.40;41.20;;;;;;;-0.01;86.99;101565.20;88045;1273;86636;-63
2021/12/13 09:32:58;;;;;;;106.40;35.10;;;;;;;-0.00;87.06;101561.10;88038;1282;93020;-64
2021/12/13 09:35:48;;;;;;;112.00;36.70;;;;;;;0.02;86.87;101564.86;88015;1285;79238;-64
2021/12/13 09:38:02;;;;;;;98.20;32.60;;;;;;;0.04;86.80;101560.83;87924;1281;82980;-64
2021/12/13 09:40:18;;;;;;;94.40;34.00;;;;;;;0.08;86.65;101562.20;88044;1276;98254;-64
2021/12/13 09:42:43;;;;;;;103.50;36.00;;;;;;;0.04;86.61;101560.83;88054;1285;86957;-61
2021/12/13 09:45:09;;;;;;;104.40;36.10;;;;;;;0.14;86.70;101559.90;88040;1281;95669;-64
2021/12/13 09:47:21;;;;;;;107.80;37.40;;;;;;;0.20;86.60;101560.54;88022;1282;77264;-66
2021/12/13 09:49:38;;;;;;;101.70;36.90;;;;;;;0.21;86.47;101560.69;87970;1282;80845;-66
2021/12/13 09:51:53;;;;;;;110.50;37.30;;;;;;;0.22;86.62;101558.70;87949;1282;99450;-63
2021/12/13 09:54:10;;;;;;;110.40;35.70;;;;;;;0.24;86.50;101557.14;88044;1282;89165;-64
2021/12/13 09:56:26;;;;;;;115.00;37.30;;;;;;;0.29;86.45;101560.86;88035;1285;94817;-63
2021/12/13 09:58:46;;;;;;;112.80;38.00;;;;;;;0.22;86.38;101556.58;88029;1282;79736;-64
2021/12/13 10:01:01;;;;;;;117.60;36.80;;;;;;;0.17;86.62;101558.08;88021;1282;82790;-63
2021/12/13 10:03:18;;;;;;;115.10;36.40;;;;;;;0.16;86.61;101561.34;88016;1283;100355;-63
2021/12/13 10:05:35;;;;;;;109.70;34.70;;;;;;;0.08;86.86;101565.05;88066;1282;89105;-63
2021/12/13 10:07:51;;;;;;;107.80;39.00;;;;;;;0.14;86.71;101564.67;88025;1283;93601;-72
2021/12/13 10:10:06;;;;;;;114.30;39.30;;;;;;;0.21;86.79;101561.35;88026;1285;80196;-71
2021/12/13 10:12:20;;;;;;;114.00;38.90;;;;;;;0.23;86.78;101559.83;88025;1282;83339;-70
2021/12/13 10:14:37;;;;;;;105.00;35.60;;;;;;;0.26;86.81;101563.05;88037;1282;98829;-67
2021/12/13 10:16:50;;;;;;;111.60;37.60;;;;;;;0.32;86.68;101561.74;88031;1282;87604;-65
2021/12/13 10:19:05;;;;;;;122.20;39.10;;;;;;;0.34;86.62;101566.55;88042;1280;95298;-65
2021/12/13 10:21:18;;;;;;;112.70;38.60;;;;;;;0.24;86.83;101563.69;88047;1282;78458;-64
2021/12/13 10:23:32;;;;;;;110.60;35.10;;;;;;;0.23;86.81;101566.75;88039;1283;81636;-64
2021/12/13 10:25:47;;;;;;;113.10;37.10;;;;;;;0.23;86.87;101566.02;88027;1282;98210;-67
2021/12/13 10:27:57;;;;;;;113.60;38.40;;;;;;;0.20;86.79;101559.00;88024;1276;87621;-69